Wooster, OH

12:17 PM EST on February 08, 2016 (GMT -0500)
Wayne County | | Change Station
CLOSE
Current Station
Airport
Location: Wooster,
Elevation: 1135 ft
Nearby Weather Stations

Elev 1135 ft 40.87 °N, 81.89 °W | Updated 21 minutes ago

Snow
Snow Fog
33 °F
Feels Like 33 °F
N
0
Wind Variable Wind from North

Today
High -- | Low -- °F
--% Chance of Precip.
Yesterday
High -- | Low -- °F
Precip. -- in
Pressure 29.61 in
Visibility 0.5 miles
Clouds Mostly Cloudy 400 ft
Overcast 900 ft
Dew Point 32 °F
Humidity 96%
Rainfall 0.24 in
Snow Depth Not available.
7:30 AM 5:53 PM
New Moon, 0% visible
METAR KBJJ 081656Z AUTO 00000KT 1/2SM SN FG BKN004 OVC009 01/00 A2958 RMK AO2 SLP025 P0008 T00060000
Pressure 29.61 in
Visibility 0.5 miles
Clouds Mostly Cloudy 400 ft
Overcast 900 ft
Dew Point 32 °F
Humidity 96%
Rainfall 0.24 in
Snow Depth Not available.
7:30 AM 5:53 PM
New Moon, 0% visible
METAR KBJJ 081656Z AUTO 00000KT 1/2SM SN FG BKN004 OVC009 01/00 A2958 RMK AO2 SLP025 P0008 T00060000

10-Day Weather Forecast

Almanac

Astronomy

Feb. 08, 2016 Rise Set
Actual Time
Civil Twilight
Nautical Twilight
Astronomical Twilight
Moon
Length of Visible Light
Length of Day
Tomorrow will be .
, % of the Moon is Illuminated

Today's Extremes

State Highs State Lows

Community

WunderPhotos

Upload Photos

1,891,471 photos uploaded!

WunderBlog® & News

Nearby

Air Quality

  Air Quality AQ Index Pollutant
Not available.

Snow Depth

Station Depth Elevation

Earthquake Activity

City Distance Mag. Time & Date
Minimum magnitude displayed is 2.5.

Coastal Water Temperatures

Place Temperature

Stations

Nearby Weather Stations

Station Location Temp. Windchill Dew Point Humidity Wind Precip. Elev Updated Type
                   

Watches & Warnings

There are currently no watches in effect.